sensor_id;sensor_type;location;lat;lon;timestamp;P1;durP1;ratioP1;P2;durP2;ratioP2
77955;SDS011;67152;36.266;32.294;2023-05-02T00:00:50;11.48;;;4.60;;
77955;SDS011;67152;36.266;32.294;2023-05-02T00:03:17;13.33;;;4.57;;
77955;SDS011;67152;36.266;32.294;2023-05-02T00:05:44;6.68;;;3.95;;
77955;SDS011;67152;36.266;32.294;2023-05-02T00:08:11;9.63;;;3.80;;
77955;SDS011;67152;36.266;32.294;2023-05-02T00:10:37;9.40;;;3.97;;
77955;SDS011;67152;36.266;32.294;2023-05-02T00:13:04;10.27;;;4.80;;
77955;SDS011;67152;36.266;32.294;2023-05-02T00:15:31;7.10;;;3.73;;
77955;SDS011;67152;36.266;32.294;2023-05-02T00:17:58;9.63;;;4.47;;
77955;SDS011;67152;36.266;32.294;2023-05-02T00:20:25;13.43;;;3.35;;
77955;SDS011;67152;36.266;32.294;2023-05-02T00:22:52;8.50;;;3.67;;
77955;SDS011;67152;36.266;32.294;2023-05-02T00:25:18;5.28;;;3.55;;
77955;SDS011;67152;36.266;32.294;2023-05-02T00:27:45;6.95;;;3.70;;
77955;SDS011;67152;36.266;32.294;2023-05-02T00:30:13;10.95;;;4.43;;
77955;SDS011;67152;36.266;32.294;2023-05-02T00:32:40;45.87;;;5.67;;
77955;SDS011;67152;36.266;32.294;2023-05-02T00:35:07;7.13;;;4.10;;
77955;SDS011;67152;36.266;32.294;2023-05-02T00:37:34;6.63;;;4.23;;
77955;SDS011;67152;36.266;32.294;2023-05-02T00:40:01;8.03;;;4.27;;
77955;SDS011;67152;36.266;32.294;2023-05-02T00:44:56;9.25;;;4.30;;
77955;SDS011;67152;36.266;32.294;2023-05-02T00:47:23;9.40;;;4.60;;
77955;SDS011;67152;36.266;32.294;2023-05-02T00:49:49;6.05;;;4.72;;
77955;SDS011;67152;36.266;32.294;2023-05-02T00:52:16;10.98;;;4.43;;
77955;SDS011;67152;36.266;32.294;2023-05-02T00:57:10;10.02;;;4.60;;
77955;SDS011;67152;36.266;32.294;2023-05-02T00:59:37;9.23;;;4.30;;
77955;SDS011;67152;36.266;32.294;2023-05-02T01:15:48;10.85;;;5.10;;
77955;SDS011;67152;36.266;32.294;2023-05-02T01:18:17;9.15;;;4.47;;
77955;SDS011;67152;36.266;32.294;2023-05-02T01:20:51;5.25;;;3.65;;
77955;SDS011;67152;36.266;32.294;2023-05-02T01:23:24;8.02;;;4.00;;
77955;SDS011;67152;36.266;32.294;2023-05-02T01:28:58;7.43;;;3.50;;
77955;SDS011;67152;36.266;32.294;2023-05-02T01:31:36;7.65;;;3.30;;
77955;SDS011;67152;36.266;32.294;2023-05-02T01:34:05;10.82;;;3.92;;
77955;SDS011;67152;36.266;32.294;2023-05-02T01:36:43;6.80;;;3.83;;
77955;SDS011;67152;36.266;32.294;2023-05-02T01:39:16;7.47;;;3.85;;
77955;SDS011;67152;36.266;32.294;2023-05-02T01:41:44;7.65;;;4.65;;
77955;SDS011;67152;36.266;32.294;2023-05-02T01:44:11;13.35;;;4.57;;
77955;SDS011;67152;36.266;32.294;2023-05-02T01:46:39;7.07;;;4.57;;
77955;SDS011;67152;36.266;32.294;2023-05-02T01:49:07;8.80;;;4.80;;
77955;SDS011;67152;36.266;32.294;2023-05-02T01:51:35;9.73;;;4.03;;
77955;SDS011;67152;36.266;32.294;2023-05-02T01:54:06;9.55;;;4.57;;
77955;SDS011;67152;36.266;32.294;2023-05-02T01:56:37;7.55;;;4.60;;
77955;SDS011;67152;36.266;32.294;2023-05-02T01:59:04;11.57;;;4.88;;
77955;SDS011;67152;36.266;32.294;2023-05-02T02:01:34;7.55;;;4.50;;
77955;SDS011;67152;36.266;32.294;2023-05-02T02:04:01;10.75;;;4.60;;
77955;SDS011;67152;36.266;32.294;2023-05-02T02:06:29;7.15;;;4.35;;
77955;SDS011;67152;36.266;32.294;2023-05-02T02:08:56;8.75;;;4.50;;
77955;SDS011;67152;36.266;32.294;2023-05-02T02:11:26;7.75;;;4.38;;
77955;SDS011;67152;36.266;32.294;2023-05-02T02:14:21;6.90;;;4.57;;
77955;SDS011;67152;36.266;32.294;2023-05-02T02:16:52;6.82;;;4.65;;
77955;SDS011;67152;36.266;32.294;2023-05-02T02:19:22;8.95;;;4.75;;
77955;SDS011;67152;36.266;32.294;2023-05-02T02:21:50;6.63;;;4.32;;
77955;SDS011;67152;36.266;32.294;2023-05-02T02:24:18;6.03;;;3.78;;
77955;SDS011;67152;36.266;32.294;2023-05-02T02:26:46;6.10;;;3.92;;
77955;SDS011;67152;36.266;32.294;2023-05-02T02:29:13;7.00;;;3.85;;
77955;SDS011;67152;36.266;32.294;2023-05-02T02:31:39;6.40;;;3.92;;
77955;SDS011;67152;36.266;32.294;2023-05-02T02:34:06;9.50;;;4.13;;
77955;SDS011;67152;36.266;32.294;2023-05-02T02:36:35;8.25;;;4.18;;
77955;SDS011;67152;36.266;32.294;2023-05-02T02:42:09;8.30;;;4.05;;
77955;SDS011;67152;36.266;32.294;2023-05-02T02:47:49;11.18;;;4.57;;
77955;SDS011;67152;36.266;32.294;2023-05-02T02:50:23;8.43;;;4.43;;
77955;SDS011;67152;36.266;32.294;2023-05-02T02:53:13;4.47;;;3.58;;
77955;SDS011;67152;36.266;32.294;2023-05-02T02:55:48;6.25;;;3.90;;
77955;SDS011;67152;36.266;32.294;2023-05-02T02:58:38;9.07;;;3.95;;
77955;SDS011;67152;36.266;32.294;2023-05-02T03:01:26;7.30;;;3.60;;
77955;SDS011;67152;36.266;32.294;2023-05-02T03:03:53;13.45;;;3.90;;
77955;SDS011;67152;36.266;32.294;2023-05-02T03:06:20;9.23;;;3.92;;
77955;SDS011;67152;36.266;32.294;2023-05-02T03:08:48;6.27;;;3.87;;
77955;SDS011;67152;36.266;32.294;2023-05-02T03:11:16;5.88;;;3.78;;
77955;SDS011;67152;36.266;32.294;2023-05-02T03:13:43;5.07;;;3.50;;
77955;SDS011;67152;36.266;32.294;2023-05-02T03:18:50;5.65;;;3.80;;
77955;SDS011;67152;36.266;32.294;2023-05-02T03:21:17;7.45;;;3.90;;
77955;SDS011;67152;36.266;32.294;2023-05-02T03:23:44;9.32;;;5.32;;
77955;SDS011;67152;36.266;32.294;2023-05-02T03:26:11;7.40;;;4.77;;
77955;SDS011;67152;36.266;32.294;2023-05-02T03:28:38;11.80;;;5.00;;
77955;SDS011;67152;36.266;32.294;2023-05-02T03:31:05;10.90;;;4.30;;
77955;SDS011;67152;36.266;32.294;2023-05-02T03:33:31;8.27;;;4.80;;
77955;SDS011;67152;36.266;32.294;2023-05-02T03:35:58;8.90;;;5.15;;
77955;SDS011;67152;36.266;32.294;2023-05-02T03:38:25;14.27;;;6.82;;
77955;SDS011;67152;36.266;32.294;2023-05-02T03:40:58;13.75;;;5.88;;
77955;SDS011;67152;36.266;32.294;2023-05-02T03:43:25;11.50;;;6.78;;
77955;SDS011;67152;36.266;32.294;2023-05-02T03:45:51;8.93;;;6.05;;
77955;SDS011;67152;36.266;32.294;2023-05-02T03:48:18;13.15;;;6.57;;
77955;SDS011;67152;36.266;32.294;2023-05-02T03:50:45;12.15;;;6.93;;
77955;SDS011;67152;36.266;32.294;2023-05-02T03:53:12;10.98;;;7.40;;
77955;SDS011;67152;36.266;32.294;2023-05-02T03:55:41;17.65;;;6.95;;
77955;SDS011;67152;36.266;32.294;2023-05-02T03:58:09;13.13;;;6.53;;
77955;SDS011;67152;36.266;32.294;2023-05-02T04:03:03;13.77;;;7.22;;
77955;SDS011;67152;36.266;32.294;2023-05-02T04:05:32;14.65;;;6.50;;
77955;SDS011;67152;36.266;32.294;2023-05-02T04:08:00;22.65;;;7.90;;
77955;SDS011;67152;36.266;32.294;2023-05-02T04:12:53;13.70;;;8.47;;
77955;SDS011;67152;36.266;32.294;2023-05-02T04:15:20;13.77;;;6.90;;
77955;SDS011;67152;36.266;32.294;2023-05-02T04:17:47;10.80;;;6.93;;
77955;SDS011;67152;36.266;32.294;2023-05-02T04:20:14;12.17;;;7.67;;
77955;SDS011;67152;36.266;32.294;2023-05-02T04:22:41;27.73;;;7.35;;
77955;SDS011;67152;36.266;32.294;2023-05-02T04:25:08;14.15;;;6.63;;
77955;SDS011;67152;36.266;32.294;2023-05-02T04:27:35;10.95;;;6.38;;
77955;SDS011;67152;36.266;32.294;2023-05-02T04:30:01;15.23;;;7.22;;
77955;SDS011;67152;36.266;32.294;2023-05-02T04:32:28;10.70;;;6.05;;
77955;SDS011;67152;36.266;32.294;2023-05-02T04:34:55;12.73;;;5.63;;
77955;SDS011;67152;36.266;32.294;2023-05-02T04:37:22;12.75;;;5.45;;
77955;SDS011;67152;36.266;32.294;2023-05-02T04:39:52;15.93;;;6.03;;
77955;SDS011;67152;36.266;32.294;2023-05-02T04:42:19;7.32;;;4.90;;
77955;SDS011;67152;36.266;32.294;2023-05-02T04:44:47;14.57;;;3.67;;
77955;SDS011;67152;36.266;32.294;2023-05-02T04:47:14;9.63;;;3.65;;
77955;SDS011;67152;36.266;32.294;2023-05-02T04:49:42;12.93;;;3.78;;
77955;SDS011;67152;36.266;32.294;2023-05-02T04:54:35;11.32;;;3.83;;
77955;SDS011;67152;36.266;32.294;2023-05-02T04:57:02;12.57;;;4.45;;
77955;SDS011;67152;36.266;32.294;2023-05-02T04:59:31;17.48;;;3.90;;
77955;SDS011;67152;36.266;32.294;2023-05-02T05:01:58;8.63;;;3.33;;
77955;SDS011;67152;36.266;32.294;2023-05-02T05:04:25;11.10;;;3.55;;
77955;SDS011;67152;36.266;32.294;2023-05-02T05:06:52;11.43;;;3.78;;
77955;SDS011;67152;36.266;32.294;2023-05-02T05:09:19;11.30;;;3.78;;
77955;SDS011;67152;36.266;32.294;2023-05-02T05:11:46;9.98;;;3.97;;
77955;SDS011;67152;36.266;32.294;2023-05-02T05:14:13;8.25;;;3.65;;
77955;SDS011;67152;36.266;32.294;2023-05-02T05:19:06;11.05;;;4.00;;
77955;SDS011;67152;36.266;32.294;2023-05-02T05:21:33;14.38;;;4.78;;
77955;SDS011;67152;36.266;32.294;2023-05-02T05:26:27;10.07;;;4.15;;
77955;SDS011;67152;36.266;32.294;2023-05-02T05:28:54;13.35;;;4.00;;
77955;SDS011;67152;36.266;32.294;2023-05-02T05:31:20;15.63;;;4.10;;
77955;SDS011;67152;36.266;32.294;2023-05-02T05:33:49;12.93;;;4.40;;
77955;SDS011;67152;36.266;32.294;2023-05-02T05:41:09;14.35;;;4.25;;
77955;SDS011;67152;36.266;32.294;2023-05-02T05:43:48;10.98;;;4.22;;
77955;SDS011;67152;36.266;32.294;2023-05-02T05:46:14;10.98;;;3.85;;
77955;SDS011;67152;36.266;32.294;2023-05-02T05:51:27;12.45;;;3.63;;
77955;SDS011;67152;36.266;32.294;2023-05-02T05:53:54;7.60;;;3.53;;
77955;SDS011;67152;36.266;32.294;2023-05-02T05:56:21;11.48;;;3.65;;
77955;SDS011;67152;36.266;32.294;2023-05-02T05:58:48;7.88;;;4.40;;
77955;SDS011;67152;36.266;32.294;2023-05-02T06:01:14;17.40;;;4.60;;
77955;SDS011;67152;36.266;32.294;2023-05-02T06:03:41;30.08;;;4.85;;
77955;SDS011;67152;36.266;32.294;2023-05-02T06:06:08;7.00;;;2.80;;
77955;SDS011;67152;36.266;32.294;2023-05-02T06:08:35;27.92;;;4.10;;
77955;SDS011;67152;36.266;32.294;2023-05-02T06:11:03;14.27;;;3.92;;
77955;SDS011;67152;36.266;32.294;2023-05-02T06:13:34;14.07;;;3.78;;
77955;SDS011;67152;36.266;32.294;2023-05-02T06:16:01;6.13;;;2.97;;
77955;SDS011;67152;36.266;32.294;2023-05-02T06:18:49;9.50;;;3.30;;
77955;SDS011;67152;36.266;32.294;2023-05-02T06:21:19;6.50;;;3.17;;
77955;SDS011;67152;36.266;32.294;2023-05-02T06:23:46;15.95;;;3.35;;
77955;SDS011;67152;36.266;32.294;2023-05-02T06:28:40;5.82;;;2.88;;
77955;SDS011;67152;36.266;32.294;2023-05-02T06:31:08;11.43;;;3.30;;
77955;SDS011;67152;36.266;32.294;2023-05-02T06:33:35;16.52;;;3.22;;
77955;SDS011;67152;36.266;32.294;2023-05-02T06:36:01;12.70;;;3.25;;
77955;SDS011;67152;36.266;32.294;2023-05-02T06:38:29;9.93;;;3.28;;
77955;SDS011;67152;36.266;32.294;2023-05-02T06:40:56;15.77;;;3.65;;
77955;SDS011;67152;36.266;32.294;2023-05-02T06:43:22;16.85;;;3.67;;
77955;SDS011;67152;36.266;32.294;2023-05-02T06:45:52;9.70;;;2.92;;
77955;SDS011;67152;36.266;32.294;2023-05-02T06:48:21;9.15;;;2.92;;
77955;SDS011;67152;36.266;32.294;2023-05-02T06:53:14;35.75;;;4.20;;
77955;SDS011;67152;36.266;32.294;2023-05-02T06:55:41;12.80;;;3.50;;
77955;SDS011;67152;36.266;32.294;2023-05-02T06:58:09;17.80;;;5.05;;
77955;SDS011;67152;36.266;32.294;2023-05-02T07:00:36;18.25;;;3.22;;
77955;SDS011;67152;36.266;32.294;2023-05-02T07:03:02;8.85;;;3.58;;
77955;SDS011;67152;36.266;32.294;2023-05-02T07:05:29;8.18;;;3.50;;
77955;SDS011;67152;36.266;32.294;2023-05-02T07:07:56;11.35;;;3.90;;
77955;SDS011;67152;36.266;32.294;2023-05-02T07:10:23;7.20;;;3.15;;
77955;SDS011;67152;36.266;32.294;2023-05-02T07:12:50;6.20;;;3.15;;
77955;SDS011;67152;36.266;32.294;2023-05-02T07:15:17;12.60;;;3.40;;
77955;SDS011;67152;36.266;32.294;2023-05-02T07:17:43;5.97;;;2.90;;
77955;SDS011;67152;36.266;32.294;2023-05-02T07:20:12;8.07;;;3.33;;
77955;SDS011;67152;36.266;32.294;2023-05-02T07:22:40;11.93;;;3.80;;
77955;SDS011;67152;36.266;32.294;2023-05-02T07:25:08;11.68;;;3.35;;
77955;SDS011;67152;36.266;32.294;2023-05-02T07:27:35;5.32;;;3.25;;
77955;SDS011;67152;36.266;32.294;2023-05-02T07:30:02;11.73;;;4.13;;
77955;SDS011;67152;36.266;32.294;2023-05-02T07:32:30;10.63;;;4.28;;
77955;SDS011;67152;36.266;32.294;2023-05-02T07:34:57;11.57;;;3.88;;
77955;SDS011;67152;36.266;32.294;2023-05-02T07:37:23;10.35;;;3.60;;
77955;SDS011;67152;36.266;32.294;2023-05-02T07:39:50;9.63;;;3.45;;
77955;SDS011;67152;36.266;32.294;2023-05-02T07:42:17;10.38;;;3.88;;
77955;SDS011;67152;36.266;32.294;2023-05-02T07:44:44;8.10;;;3.53;;
77955;SDS011;67152;36.266;32.294;2023-05-02T07:47:10;16.92;;;3.78;;
77955;SDS011;67152;36.266;32.294;2023-05-02T07:49:37;11.00;;;3.40;;
77955;SDS011;67152;36.266;32.294;2023-05-02T07:52:04;9.75;;;3.65;;
77955;SDS011;67152;36.266;32.294;2023-05-02T07:54:30;12.35;;;3.88;;
77955;SDS011;67152;36.266;32.294;2023-05-02T07:56:57;7.25;;;3.80;;
77955;SDS011;67152;36.266;32.294;2023-05-02T07:59:28;36.25;;;5.13;;
77955;SDS011;67152;36.266;32.294;2023-05-02T08:02:16;14.18;;;3.70;;
77955;SDS011;67152;36.266;32.294;2023-05-02T08:04:45;9.00;;;3.40;;
77955;SDS011;67152;36.266;32.294;2023-05-02T08:07:12;13.88;;;3.85;;
77955;SDS011;67152;36.266;32.294;2023-05-02T08:09:39;14.40;;;4.47;;
77955;SDS011;67152;36.266;32.294;2023-05-02T08:12:06;19.73;;;9.07;;
77955;SDS011;67152;36.266;32.294;2023-05-02T08:14:33;16.58;;;8.02;;
77955;SDS011;67152;36.266;32.294;2023-05-02T08:17:04;15.95;;;6.78;;
77955;SDS011;67152;36.266;32.294;2023-05-02T08:19:31;15.18;;;5.43;;
77955;SDS011;67152;36.266;32.294;2023-05-02T08:21:58;9.73;;;4.93;;
77955;SDS011;67152;36.266;32.294;2023-05-02T08:24:25;21.77;;;8.63;;
77955;SDS011;67152;36.266;32.294;2023-05-02T08:26:52;19.80;;;9.75;;
77955;SDS011;67152;36.266;32.294;2023-05-02T08:29:19;8.10;;;3.58;;
77955;SDS011;67152;36.266;32.294;2023-05-02T08:34:13;12.00;;;4.47;;
77955;SDS011;67152;36.266;32.294;2023-05-02T08:36:40;11.13;;;4.05;;
77955;SDS011;67152;36.266;32.294;2023-05-02T08:39:07;10.13;;;3.80;;
77955;SDS011;67152;36.266;32.294;2023-05-02T08:41:34;14.73;;;4.50;;
77955;SDS011;67152;36.266;32.294;2023-05-02T08:44:01;8.07;;;4.10;;
77955;SDS011;67152;36.266;32.294;2023-05-02T08:46:28;14.30;;;4.32;;
77955;SDS011;67152;36.266;32.294;2023-05-02T08:48:56;10.25;;;3.75;;
77955;SDS011;67152;36.266;32.294;2023-05-02T08:51:44;10.88;;;4.57;;
77955;SDS011;67152;36.266;32.294;2023-05-02T08:54:11;13.57;;;3.92;;
77955;SDS011;67152;36.266;32.294;2023-05-02T08:56:42;9.90;;;4.30;;
77955;SDS011;67152;36.266;32.294;2023-05-02T09:01:36;28.45;;;5.00;;
77955;SDS011;67152;36.266;32.294;2023-05-02T09:04:04;16.02;;;5.65;;
77955;SDS011;67152;36.266;32.294;2023-05-02T09:06:31;14.63;;;4.55;;
77955;SDS011;67152;36.266;32.294;2023-05-02T09:08:58;10.13;;;4.13;;
77955;SDS011;67152;36.266;32.294;2023-05-02T09:11:25;10.70;;;4.07;;
77955;SDS011;67152;36.266;32.294;2023-05-02T09:13:53;8.52;;;4.30;;
77955;SDS011;67152;36.266;32.294;2023-05-02T09:16:21;9.38;;;3.35;;
77955;SDS011;67152;36.266;32.294;2023-05-02T09:18:51;8.30;;;3.95;;
77955;SDS011;67152;36.266;32.294;2023-05-02T09:21:19;9.60;;;3.90;;
77955;SDS011;67152;36.266;32.294;2023-05-02T09:23:48;13.73;;;4.35;;
77955;SDS011;67152;36.266;32.294;2023-05-02T09:31:20;10.63;;;4.47;;
77955;SDS011;67152;36.266;32.294;2023-05-02T09:33:48;10.73;;;4.20;;
77955;SDS011;67152;36.266;32.294;2023-05-02T09:36:15;14.82;;;4.80;;
77955;SDS011;67152;36.266;32.294;2023-05-02T09:38:44;7.55;;;3.80;;
77955;SDS011;67152;36.266;32.294;2023-05-02T09:41:12;12.77;;;4.00;;
77955;SDS011;67152;36.266;32.294;2023-05-02T09:43:40;39.05;;;4.85;;
77955;SDS011;67152;36.266;32.294;2023-05-02T09:46:07;11.27;;;4.03;;
77955;SDS011;67152;36.266;32.294;2023-05-02T09:48:54;8.13;;;4.00;;
77955;SDS011;67152;36.266;32.294;2023-05-02T09:51:23;9.38;;;4.07;;
77955;SDS011;67152;36.266;32.294;2023-05-02T09:53:51;9.73;;;3.78;;
77955;SDS011;67152;36.266;32.294;2023-05-02T09:56:56;15.65;;;4.20;;
77955;SDS011;67152;36.266;32.294;2023-05-02T09:59:23;10.93;;;3.97;;
77955;SDS011;67152;36.266;32.294;2023-05-02T10:01:57;8.23;;;4.07;;
77955;SDS011;67152;36.266;32.294;2023-05-02T10:04:25;10.02;;;3.90;;
77955;SDS011;67152;36.266;32.294;2023-05-02T10:06:53;10.38;;;4.25;;
77955;SDS011;67152;36.266;32.294;2023-05-02T10:09:21;13.52;;;3.50;;
77955;SDS011;67152;36.266;32.294;2023-05-02T10:14:19;10.88;;;4.20;;
77955;SDS011;67152;36.266;32.294;2023-05-02T10:19:28;9.13;;;3.67;;
77955;SDS011;67152;36.266;32.294;2023-05-02T10:21:58;8.63;;;4.10;;
77955;SDS011;67152;36.266;32.294;2023-05-02T10:24:43;6.47;;;3.33;;
77955;SDS011;67152;36.266;32.294;2023-05-02T10:30:15;7.25;;;3.65;;
77955;SDS011;67152;36.266;32.294;2023-05-02T10:33:00;7.17;;;3.50;;
77955;SDS011;67152;36.266;32.294;2023-05-02T10:35:47;12.13;;;4.32;;
77955;SDS011;67152;36.266;32.294;2023-05-02T10:38:32;10.73;;;3.90;;
77955;SDS011;67152;36.266;32.294;2023-05-02T10:41:18;10.03;;;3.57;;
77955;SDS011;67152;36.266;32.294;2023-05-02T10:44:06;8.82;;;3.88;;
77955;SDS011;67152;36.266;32.294;2023-05-02T10:46:52;8.10;;;3.55;;
77955;SDS011;67152;36.266;32.294;2023-05-02T10:49:48;10.95;;;3.92;;
77955;SDS011;67152;36.266;32.294;2023-05-02T10:52:37;7.80;;;3.35;;
77955;SDS011;67152;36.266;32.294;2023-05-02T10:55:24;10.80;;;4.22;;
77955;SDS011;67152;36.266;32.294;2023-05-02T11:04:19;8.60;;;3.85;;
77955;SDS011;67152;36.266;32.294;2023-05-02T11:09:49;7.22;;;3.78;;
77955;SDS011;67152;36.266;32.294;2023-05-02T11:18:51;9.60;;;4.43;;
77955;SDS011;67152;36.266;32.294;2023-05-02T11:21:46;10.15;;;3.60;;
77955;SDS011;67152;36.266;32.294;2023-05-02T11:24:42;12.45;;;4.70;;
77955;SDS011;67152;36.266;32.294;2023-05-02T11:30:37;9.05;;;3.50;;
77955;SDS011;67152;36.266;32.294;2023-05-02T11:33:27;5.75;;;3.20;;
77955;SDS011;67152;36.266;32.294;2023-05-02T11:36:12;11.13;;;3.40;;
77955;SDS011;67152;36.266;32.294;2023-05-02T11:38:59;10.73;;;3.78;;
77955;SDS011;67152;36.266;32.294;2023-05-02T11:41:46;7.88;;;3.30;;
77955;SDS011;67152;36.266;32.294;2023-05-02T11:44:46;8.43;;;3.95;;
77955;SDS011;67152;36.266;32.294;2023-05-02T11:47:42;10.88;;;4.20;;
77955;SDS011;67152;36.266;32.294;2023-05-02T11:50:29;11.80;;;3.88;;
77955;SDS011;67152;36.266;32.294;2023-05-02T11:53:15;14.27;;;4.15;;
77955;SDS011;67152;36.266;32.294;2023-05-02T11:56:07;8.63;;;4.00;;
77955;SDS011;67152;36.266;32.294;2023-05-02T11:58:58;13.10;;;3.80;;
77955;SDS011;67152;36.266;32.294;2023-05-02T12:01:48;8.30;;;3.63;;
77955;SDS011;67152;36.266;32.294;2023-05-02T12:04:41;19.75;;;4.07;;
77955;SDS011;67152;36.266;32.294;2023-05-02T12:07:35;7.82;;;3.78;;
77955;SDS011;67152;36.266;32.294;2023-05-02T12:10:36;8.50;;;3.63;;
77955;SDS011;67152;36.266;32.294;2023-05-02T12:13:22;11.60;;;3.67;;
77955;SDS011;67152;36.266;32.294;2023-05-02T12:16:07;15.73;;;3.42;;
77955;SDS011;67152;36.266;32.294;2023-05-02T12:18:52;10.57;;;3.97;;
77955;SDS011;67152;36.266;32.294;2023-05-02T12:21:39;6.50;;;3.38;;
77955;SDS011;67152;36.266;32.294;2023-05-02T12:24:25;6.63;;;3.30;;
77955;SDS011;67152;36.266;32.294;2023-05-02T12:27:32;6.00;;;2.95;;
77955;SDS011;67152;36.266;32.294;2023-05-02T12:30:25;12.13;;;3.03;;
77955;SDS011;67152;36.266;32.294;2023-05-02T12:33:10;6.80;;;2.53;;
77955;SDS011;67152;36.266;32.294;2023-05-02T12:36:04;11.60;;;3.10;;
77955;SDS011;67152;36.266;32.294;2023-05-02T12:38:51;8.65;;;3.40;;
77955;SDS011;67152;36.266;32.294;2023-05-02T12:41:37;7.18;;;3.25;;
77955;SDS011;67152;36.266;32.294;2023-05-02T12:47:44;7.78;;;3.65;;
77955;SDS011;67152;36.266;32.294;2023-05-02T12:50:36;11.02;;;3.83;;
77955;SDS011;67152;36.266;32.294;2023-05-02T12:56:37;7.80;;;3.60;;
77955;SDS011;67152;36.266;32.294;2023-05-02T12:59:24;67.20;;;5.60;;
77955;SDS011;67152;36.266;32.294;2023-05-02T13:02:13;17.33;;;3.90;;
77955;SDS011;67152;36.266;32.294;2023-05-02T13:04:59;7.82;;;3.53;;
77955;SDS011;67152;36.266;32.294;2023-05-02T13:07:44;13.93;;;3.78;;
77955;SDS011;67152;36.266;32.294;2023-05-02T13:10:29;13.15;;;3.42;;
77955;SDS011;67152;36.266;32.294;2023-05-02T13:13:14;11.43;;;3.90;;
77955;SDS011;67152;36.266;32.294;2023-05-02T13:15:59;5.65;;;3.30;;
77955;SDS011;67152;36.266;32.294;2023-05-02T13:18:44;6.22;;;3.20;;
77955;SDS011;67152;36.266;32.294;2023-05-02T13:21:29;16.95;;;4.05;;
77955;SDS011;67152;36.266;32.294;2023-05-02T13:24:15;6.50;;;3.80;;
77955;SDS011;67152;36.266;32.294;2023-05-02T13:27:01;12.82;;;4.10;;
77955;SDS011;67152;36.266;32.294;2023-05-02T13:29:47;11.15;;;3.65;;
77955;SDS011;67152;36.266;32.294;2023-05-02T13:32:33;12.48;;;4.20;;
77955;SDS011;67152;36.266;32.294;2023-05-02T13:35:18;9.77;;;3.40;;
77955;SDS011;67152;36.266;32.294;2023-05-02T13:38:03;14.93;;;3.90;;
77955;SDS011;67152;36.266;32.294;2023-05-02T13:40:50;9.23;;;3.80;;
77955;SDS011;67152;36.266;32.294;2023-05-02T13:43:35;11.73;;;3.88;;
77955;SDS011;67152;36.266;32.294;2023-05-02T13:46:20;5.68;;;3.45;;
77955;SDS011;67152;36.266;32.294;2023-05-02T13:49:05;6.65;;;3.70;;
77955;SDS011;67152;36.266;32.294;2023-05-02T13:51:50;24.88;;;4.47;;
77955;SDS011;67152;36.266;32.294;2023-05-02T13:54:35;13.18;;;4.15;;
77955;SDS011;67152;36.266;32.294;2023-05-02T13:57:20;8.82;;;3.58;;
77955;SDS011;67152;36.266;32.294;2023-05-02T14:00:05;8.80;;;4.07;;
77955;SDS011;67152;36.266;32.294;2023-05-02T14:02:53;12.52;;;4.32;;
77955;SDS011;67152;36.266;32.294;2023-05-02T14:05:38;28.92;;;5.15;;
77955;SDS011;67152;36.266;32.294;2023-05-02T14:08:26;10.05;;;3.97;;
77955;SDS011;67152;36.266;32.294;2023-05-02T14:11:11;9.50;;;3.35;;
77955;SDS011;67152;36.266;32.294;2023-05-02T14:13:56;10.57;;;3.67;;
77955;SDS011;67152;36.266;32.294;2023-05-02T14:16:43;7.60;;;3.17;;
77955;SDS011;67152;36.266;32.294;2023-05-02T14:19:31;10.57;;;3.20;;
77955;SDS011;67152;36.266;32.294;2023-05-02T14:22:17;11.77;;;3.00;;
77955;SDS011;67152;36.266;32.294;2023-05-02T14:25:03;15.77;;;2.85;;
77955;SDS011;67152;36.266;32.294;2023-05-02T14:27:49;11.15;;;3.10;;
77955;SDS011;67152;36.266;32.294;2023-05-02T14:30:34;43.78;;;4.88;;
77955;SDS011;67152;36.266;32.294;2023-05-02T14:33:19;5.55;;;2.97;;
77955;SDS011;67152;36.266;32.294;2023-05-02T14:36:05;8.50;;;3.33;;
77955;SDS011;67152;36.266;32.294;2023-05-02T14:38:50;12.55;;;3.20;;
77955;SDS011;67152;36.266;32.294;2023-05-02T14:41:36;10.45;;;3.30;;
77955;SDS011;67152;36.266;32.294;2023-05-02T14:44:20;8.75;;;3.13;;
77955;SDS011;67152;36.266;32.294;2023-05-02T14:47:06;6.15;;;3.30;;
77955;SDS011;67152;36.266;32.294;2023-05-02T14:49:51;11.60;;;3.22;;
77955;SDS011;67152;36.266;32.294;2023-05-02T14:52:36;9.35;;;3.92;;
77955;SDS011;67152;36.266;32.294;2023-05-02T14:55:22;5.32;;;2.83;;
77955;SDS011;67152;36.266;32.294;2023-05-02T14:58:07;12.13;;;3.95;;
77955;SDS011;67152;36.266;32.294;2023-05-02T15:00:53;11.68;;;3.22;;
77955;SDS011;67152;36.266;32.294;2023-05-02T15:03:38;7.13;;;2.67;;
77955;SDS011;67152;36.266;32.294;2023-05-02T15:06:23;7.15;;;3.00;;
77955;SDS011;67152;36.266;32.294;2023-05-02T15:09:09;5.85;;;2.92;;
77955;SDS011;67152;36.266;32.294;2023-05-02T15:11:55;9.63;;;3.80;;
77955;SDS011;67152;36.266;32.294;2023-05-02T15:14:41;10.77;;;3.38;;
77955;SDS011;67152;36.266;32.294;2023-05-02T15:17:26;6.35;;;3.03;;
77955;SDS011;67152;36.266;32.294;2023-05-02T15:20:11;9.57;;;3.55;;
77955;SDS011;67152;36.266;32.294;2023-05-02T15:22:57;12.15;;;3.40;;
77955;SDS011;67152;36.266;32.294;2023-05-02T15:25:46;9.18;;;3.40;;
77955;SDS011;67152;36.266;32.294;2023-05-02T15:28:31;6.45;;;3.67;;
77955;SDS011;67152;36.266;32.294;2023-05-02T15:31:16;10.85;;;3.50;;
77955;SDS011;67152;36.266;32.294;2023-05-02T15:34:02;10.13;;;3.88;;
77955;SDS011;67152;36.266;32.294;2023-05-02T15:36:47;8.32;;;3.90;;
77955;SDS011;67152;36.266;32.294;2023-05-02T15:39:32;9.35;;;4.00;;
77955;SDS011;67152;36.266;32.294;2023-05-02T15:42:18;9.98;;;3.65;;
77955;SDS011;67152;36.266;32.294;2023-05-02T15:45:03;5.53;;;3.58;;
77955;SDS011;67152;36.266;32.294;2023-05-02T15:47:48;8.55;;;3.65;;
77955;SDS011;67152;36.266;32.294;2023-05-02T15:50:34;13.25;;;3.95;;
77955;SDS011;67152;36.266;32.294;2023-05-02T15:53:19;6.75;;;3.83;;
77955;SDS011;67152;36.266;32.294;2023-05-02T15:56:08;9.48;;;4.00;;
77955;SDS011;67152;36.266;32.294;2023-05-02T15:58:56;11.27;;;4.05;;
77955;SDS011;67152;36.266;32.294;2023-05-02T16:01:42;5.67;;;3.97;;
77955;SDS011;67152;36.266;32.294;2023-05-02T16:04:27;6.53;;;3.80;;
77955;SDS011;67152;36.266;32.294;2023-05-02T16:07:14;9.13;;;3.80;;
77955;SDS011;67152;36.266;32.294;2023-05-02T16:09:59;9.75;;;4.47;;
77955;SDS011;67152;36.266;32.294;2023-05-02T16:12:44;10.63;;;4.15;;
77955;SDS011;67152;36.266;32.294;2023-05-02T16:15:29;6.72;;;4.35;;
77955;SDS011;67152;36.266;32.294;2023-05-02T16:18:14;9.60;;;4.47;;
77955;SDS011;67152;36.266;32.294;2023-05-02T16:20:59;6.72;;;4.30;;
77955;SDS011;67152;36.266;32.294;2023-05-02T16:23:44;11.95;;;4.40;;
77955;SDS011;67152;36.266;32.294;2023-05-02T16:26:31;7.57;;;4.40;;
77955;SDS011;67152;36.266;32.294;2023-05-02T16:32:02;8.07;;;3.72;;
77955;SDS011;67152;36.266;32.294;2023-05-02T16:34:47;8.30;;;4.40;;
77955;SDS011;67152;36.266;32.294;2023-05-02T16:37:33;10.30;;;4.38;;
77955;SDS011;67152;36.266;32.294;2023-05-02T16:40:18;10.93;;;4.75;;
77955;SDS011;67152;36.266;32.294;2023-05-02T16:43:04;9.65;;;4.38;;
77955;SDS011;67152;36.266;32.294;2023-05-02T16:45:59;11.88;;;4.38;;
77955;SDS011;67152;36.266;32.294;2023-05-02T16:48:45;13.20;;;4.97;;
77955;SDS011;67152;36.266;32.294;2023-05-02T16:51:30;6.45;;;4.78;;
77955;SDS011;67152;36.266;32.294;2023-05-02T16:54:15;30.48;;;7.30;;
77955;SDS011;67152;36.266;32.294;2023-05-02T16:57:00;31.35;;;12.88;;